Аэропорт: Николаев. Николаев

ICAO: UKON

METAR:
2019/03/26 13:00
UKON 261300Z 33004MPS 300V030 9999 FEW///CB 11/01 Q1013 R04/090068 NOSIG
METAR:
2018/11/06 15:06
TAF 
      AMD TAF 
      AMD UKON 061502Z 0615/0724 CNL